Overview Statistics Trail Chart Weather Telemetry Raw packets
 

This is the latest recevied weather packets stored in our database for station/object CT1EDG-13. If no packets are shown the sender has not sent any weather packets the latest 10 day(s).

<< 89 90 91 92 93 94 95 >>
Time Temp. Humidity Pressure Rain* Wind** Luminosity Snow
1787942540 21.67° C 10% - 0 mm - - -
1787942539 21.67° C 10% - 0 mm - - -
1787941940 22.78° C 99% 1011.9 hPa 0 mm - - -
1787941938 22.78° C 99% 1011.9 hPa 0 mm - - -
1787941340 23.33° C 97% 1012 hPa 0 mm - - -
1787941337 23.33° C 97% 1012 hPa 0 mm - - -
1787940738 23.33° C 96% 1012 hPa 0 mm - - -
1787940737 23.33° C 96% 1012 hPa 0 mm - - -
1787940138 23.33° C 97% 1012 hPa 0 mm - - -
1787940137 23.33° C 97% 1012 hPa 0 mm - - -
1787939538 23.89° C 96% 1012.1 hPa 0 mm - - -
1787939537 23.89° C 96% 1012.1 hPa 0 mm - - -
1787938938 24.44° C 92% 1012.2 hPa 0 mm - - -
1787938937 24.44° C 92% 1012.2 hPa 0 mm - - -
1787938338 24.44° C 94% 1012.1 hPa 0 mm - - -
1787938336 24.44° C 94% 1012.1 hPa 0 mm - - -
1787937739 24.44° C 91% 1012.1 hPa 0 mm - - -
1787937736 24.44° C 91% 1012.1 hPa 0 mm - - -
1787937138 24.44° C 90% 1012.2 hPa 0 mm - - -
1787937136 24.44° C 90% 1012.2 hPa 0 mm - - -
1787936536 23.89° C 90% 1012.2 hPa 0 mm - - -
1787936535 23.89° C 90% 1012.2 hPa 0 mm - - -
1787935936 25.56° C 86% 1012.2 hPa 0 mm - - -
1787935935 25.56° C 86% 1012.2 hPa 0 mm - - -
1787935336 25.56° C 87% 1012.2 hPa 0 mm - - -

* Rain latest hour (hover to see other rain measurements)
** Current wind speed in m/s (hover to see current wind gust speed)